sensor_id;sensor_type;location;lat;lon;timestamp;P1;durP1;ratioP1;P2;durP2;ratioP2
74512;SDS011;62992;52.052;8.550;2023-04-24T00:02:16;0.40;;;0.10;;
74512;SDS011;62992;52.052;8.550;2023-04-24T00:05:01;0.20;;;0.10;;
74512;SDS011;62992;52.052;8.550;2023-04-24T00:07:45;0.03;;;0.03;;
74512;SDS011;62992;52.052;8.550;2023-04-24T00:10:29;0.43;;;0.15;;
74512;SDS011;62992;52.052;8.550;2023-04-24T00:13:14;0.10;;;0.10;;
74512;SDS011;62992;52.052;8.550;2023-04-24T00:15:58;0.80;;;0.15;;
74512;SDS011;62992;52.052;8.550;2023-04-24T00:18:42;0.13;;;0.10;;
74512;SDS011;62992;52.052;8.550;2023-04-24T00:21:26;0.10;;;0.03;;
74512;SDS011;62992;52.052;8.550;2023-04-24T00:24:10;0.13;;;0.10;;
74512;SDS011;62992;52.052;8.550;2023-04-24T00:26:54;0.20;;;0.10;;
74512;SDS011;62992;52.052;8.550;2023-04-24T00:29:38;0.20;;;0.10;;
74512;SDS011;62992;52.052;8.550;2023-04-24T00:32:22;0.70;;;0.20;;
74512;SDS011;62992;52.052;8.550;2023-04-24T00:35:06;0.10;;;0.10;;
74512;SDS011;62992;52.052;8.550;2023-04-24T00:37:50;0.30;;;0.20;;
74512;SDS011;62992;52.052;8.550;2023-04-24T00:40:35;0.20;;;0.20;;
74512;SDS011;62992;52.052;8.550;2023-04-24T00:43:19;0.20;;;0.10;;
74512;SDS011;62992;52.052;8.550;2023-04-24T00:46:03;0.10;;;0.10;;
74512;SDS011;62992;52.052;8.550;2023-04-24T00:48:47;0.30;;;0.30;;
74512;SDS011;62992;52.052;8.550;2023-04-24T00:51:32;0.50;;;0.40;;
74512;SDS011;62992;52.052;8.550;2023-04-24T00:54:16;0.10;;;0.10;;
74512;SDS011;62992;52.052;8.550;2023-04-24T00:57:05;0.22;;;0.20;;
74512;SDS011;62992;52.052;8.550;2023-04-24T00:59:50;0.20;;;0.20;;
74512;SDS011;62992;52.052;8.550;2023-04-24T01:02:35;0.95;;;0.20;;
74512;SDS011;62992;52.052;8.550;2023-04-24T01:05:20;0.30;;;0.17;;
74512;SDS011;62992;52.052;8.550;2023-04-24T01:08:04;0.10;;;0.10;;
74512;SDS011;62992;52.052;8.550;2023-04-24T01:10:49;0.30;;;0.20;;
74512;SDS011;62992;52.052;8.550;2023-04-24T01:13:35;0.28;;;0.25;;
74512;SDS011;62992;52.052;8.550;2023-04-24T01:16:19;0.40;;;0.30;;
74512;SDS011;62992;52.052;8.550;2023-04-24T01:19:06;0.30;;;0.30;;
74512;SDS011;62992;52.052;8.550;2023-04-24T01:21:51;0.20;;;0.20;;
74512;SDS011;62992;52.052;8.550;2023-04-24T01:24:37;1.65;;;0.50;;
74512;SDS011;62992;52.052;8.550;2023-04-24T01:27:22;0.85;;;0.28;;
74512;SDS011;62992;52.052;8.550;2023-04-24T01:30:07;0.35;;;0.35;;
74512;SDS011;62992;52.052;8.550;2023-04-24T01:32:52;0.75;;;0.57;;
74512;SDS011;62992;52.052;8.550;2023-04-24T01:35:37;0.80;;;0.57;;
74512;SDS011;62992;52.052;8.550;2023-04-24T01:38:21;1.17;;;0.40;;
74512;SDS011;62992;52.052;8.550;2023-04-24T01:41:05;1.00;;;0.50;;
74512;SDS011;62992;52.052;8.550;2023-04-24T01:43:49;0.43;;;0.40;;
74512;SDS011;62992;52.052;8.550;2023-04-24T01:46:34;0.73;;;0.28;;
74512;SDS011;62992;52.052;8.550;2023-04-24T01:49:19;0.57;;;0.47;;
74512;SDS011;62992;52.052;8.550;2023-04-24T01:52:03;0.77;;;0.35;;
74512;SDS011;62992;52.052;8.550;2023-04-24T01:54:48;0.75;;;0.50;;
74512;SDS011;62992;52.052;8.550;2023-04-24T01:57:33;0.43;;;0.40;;
74512;SDS011;62992;52.052;8.550;2023-04-24T02:00:17;0.32;;;0.20;;
74512;SDS011;62992;52.052;8.550;2023-04-24T02:03:01;0.30;;;0.30;;
74512;SDS011;62992;52.052;8.550;2023-04-24T02:05:45;0.20;;;0.20;;
74512;SDS011;62992;52.052;8.550;2023-04-24T02:08:30;0.50;;;0.40;;
74512;SDS011;62992;52.052;8.550;2023-04-24T02:11:14;0.38;;;0.30;;
74512;SDS011;62992;52.052;8.550;2023-04-24T02:13:58;0.40;;;0.40;;
74512;SDS011;62992;52.052;8.550;2023-04-24T02:16:42;1.08;;;0.40;;
74512;SDS011;62992;52.052;8.550;2023-04-24T02:19:27;1.77;;;0.40;;
74512;SDS011;62992;52.052;8.550;2023-04-24T02:22:11;0.68;;;0.43;;
74512;SDS011;62992;52.052;8.550;2023-04-24T02:24:56;0.80;;;0.57;;
74512;SDS011;62992;52.052;8.550;2023-04-24T02:27:40;0.68;;;0.40;;
74512;SDS011;62992;52.052;8.550;2023-04-24T02:30:24;0.25;;;0.25;;
74512;SDS011;62992;52.052;8.550;2023-04-24T02:33:08;0.88;;;0.30;;
74512;SDS011;62992;52.052;8.550;2023-04-24T02:35:52;0.98;;;0.50;;
74512;SDS011;62992;52.052;8.550;2023-04-24T02:38:36;0.85;;;0.55;;
74512;SDS011;62992;52.052;8.550;2023-04-24T02:41:20;0.45;;;0.45;;
74512;SDS011;62992;52.052;8.550;2023-04-24T02:44:04;0.30;;;0.30;;
74512;SDS011;62992;52.052;8.550;2023-04-24T02:46:48;2.33;;;0.50;;
74512;SDS011;62992;52.052;8.550;2023-04-24T02:49:32;0.57;;;0.50;;
74512;SDS011;62992;52.052;8.550;2023-04-24T02:52:16;0.82;;;0.60;;
74512;SDS011;62992;52.052;8.550;2023-04-24T02:55:00;0.52;;;0.40;;
74512;SDS011;62992;52.052;8.550;2023-04-24T02:57:45;0.77;;;0.40;;
74512;SDS011;62992;52.052;8.550;2023-04-24T03:00:29;0.88;;;0.50;;
74512;SDS011;62992;52.052;8.550;2023-04-24T03:03:13;0.28;;;0.28;;
74512;SDS011;62992;52.052;8.550;2023-04-24T03:05:58;1.00;;;0.80;;
74512;SDS011;62992;52.052;8.550;2023-04-24T03:08:43;1.00;;;0.60;;
74512;SDS011;62992;52.052;8.550;2023-04-24T03:11:27;0.77;;;0.50;;
74512;SDS011;62992;52.052;8.550;2023-04-24T03:14:11;0.82;;;0.60;;
74512;SDS011;62992;52.052;8.550;2023-04-24T03:16:55;0.55;;;0.40;;
74512;SDS011;62992;52.052;8.550;2023-04-24T03:19:39;1.23;;;0.25;;
74512;SDS011;62992;52.052;8.550;2023-04-24T03:22:23;0.68;;;0.55;;
74512;SDS011;62992;52.052;8.550;2023-04-24T03:25:07;1.75;;;0.40;;
74512;SDS011;62992;52.052;8.550;2023-04-24T03:27:52;0.63;;;0.40;;
74512;SDS011;62992;52.052;8.550;2023-04-24T03:30:38;0.77;;;0.55;;
74512;SDS011;62992;52.052;8.550;2023-04-24T03:33:22;0.60;;;0.40;;
74512;SDS011;62992;52.052;8.550;2023-04-24T03:36:06;1.73;;;0.40;;
74512;SDS011;62992;52.052;8.550;2023-04-24T03:38:51;0.40;;;0.25;;
74512;SDS011;62992;52.052;8.550;2023-04-24T03:41:35;0.65;;;0.45;;
74512;SDS011;62992;52.052;8.550;2023-04-24T03:44:19;1.02;;;0.60;;
74512;SDS011;62992;52.052;8.550;2023-04-24T03:47:03;0.85;;;0.55;;
74512;SDS011;62992;52.052;8.550;2023-04-24T03:49:47;0.77;;;0.55;;
74512;SDS011;62992;52.052;8.550;2023-04-24T03:52:31;1.10;;;0.60;;
74512;SDS011;62992;52.052;8.550;2023-04-24T03:55:15;1.10;;;0.50;;
74512;SDS011;62992;52.052;8.550;2023-04-24T03:57:59;0.85;;;0.47;;
74512;SDS011;62992;52.052;8.550;2023-04-24T04:00:44;0.98;;;0.73;;
74512;SDS011;62992;52.052;8.550;2023-04-24T04:06:14;0.95;;;0.60;;
74512;SDS011;62992;52.052;8.550;2023-04-24T04:08:58;1.63;;;0.70;;
74512;SDS011;62992;52.052;8.550;2023-04-24T04:11:43;0.98;;;0.77;;
74512;SDS011;62992;52.052;8.550;2023-04-24T04:14:27;0.90;;;0.60;;
74512;SDS011;62992;52.052;8.550;2023-04-24T04:17:11;2.03;;;1.00;;
74512;SDS011;62992;52.052;8.550;2023-04-24T04:19:55;1.13;;;0.70;;
74512;SDS011;62992;52.052;8.550;2023-04-24T04:22:40;1.30;;;0.90;;
74512;SDS011;62992;52.052;8.550;2023-04-24T04:25:24;1.25;;;0.80;;
74512;SDS011;62992;52.052;8.550;2023-04-24T04:28:09;1.20;;;0.95;;
74512;SDS011;62992;52.052;8.550;2023-04-24T04:30:53;1.20;;;1.08;;
74512;SDS011;62992;52.052;8.550;2023-04-24T04:33:38;1.67;;;0.93;;
74512;SDS011;62992;52.052;8.550;2023-04-24T04:36:22;1.23;;;0.82;;
74512;SDS011;62992;52.052;8.550;2023-04-24T04:39:07;1.95;;;1.25;;
74512;SDS011;62992;52.052;8.550;2023-04-24T04:41:52;3.00;;;0.95;;
74512;SDS011;62992;52.052;8.550;2023-04-24T04:44:36;2.17;;;0.88;;
74512;SDS011;62992;52.052;8.550;2023-04-24T04:47:22;2.55;;;0.90;;
74512;SDS011;62992;52.052;8.550;2023-04-24T04:50:07;1.73;;;1.20;;
74512;SDS011;62992;52.052;8.550;2023-04-24T04:52:51;2.45;;;1.15;;
74512;SDS011;62992;52.052;8.550;2023-04-24T04:55:36;3.33;;;1.45;;
74512;SDS011;62992;52.052;8.550;2023-04-24T04:58:21;3.08;;;2.08;;
74512;SDS011;62992;52.052;8.550;2023-04-24T05:01:05;3.97;;;1.77;;
74512;SDS011;62992;52.052;8.550;2023-04-24T05:03:50;3.28;;;1.70;;
74512;SDS011;62992;52.052;8.550;2023-04-24T05:06:34;5.43;;;3.30;;
74512;SDS011;62992;52.052;8.550;2023-04-24T05:09:18;4.20;;;2.38;;
74512;SDS011;62992;52.052;8.550;2023-04-24T05:12:03;5.70;;;1.98;;
74512;SDS011;62992;52.052;8.550;2023-04-24T05:14:47;3.45;;;2.42;;
74512;SDS011;62992;52.052;8.550;2023-04-24T05:17:31;2.95;;;2.20;;
74512;SDS011;62992;52.052;8.550;2023-04-24T05:20:15;3.33;;;2.13;;
74512;SDS011;62992;52.052;8.550;2023-04-24T05:23:00;6.53;;;2.47;;
74512;SDS011;62992;52.052;8.550;2023-04-24T05:25:44;4.38;;;2.65;;
74512;SDS011;62992;52.052;8.550;2023-04-24T05:28:29;2.92;;;2.17;;
74512;SDS011;62992;52.052;8.550;2023-04-24T05:31:13;6.13;;;2.83;;
74512;SDS011;62992;52.052;8.550;2023-04-24T05:33:57;3.75;;;2.42;;
74512;SDS011;62992;52.052;8.550;2023-04-24T05:36:41;4.47;;;2.70;;
74512;SDS011;62992;52.052;8.550;2023-04-24T05:39:26;5.15;;;2.65;;
74512;SDS011;62992;52.052;8.550;2023-04-24T05:42:10;3.38;;;2.22;;
74512;SDS011;62992;52.052;8.550;2023-04-24T05:44:54;4.70;;;2.83;;
74512;SDS011;62992;52.052;8.550;2023-04-24T05:47:38;5.43;;;3.10;;
74512;SDS011;62992;52.052;8.550;2023-04-24T05:50:23;4.35;;;2.72;;
74512;SDS011;62992;52.052;8.550;2023-04-24T05:53:07;6.38;;;2.53;;
74512;SDS011;62992;52.052;8.550;2023-04-24T05:55:51;4.40;;;2.45;;
74512;SDS011;62992;52.052;8.550;2023-04-24T05:58:35;5.72;;;3.53;;
74512;SDS011;62992;52.052;8.550;2023-04-24T06:01:20;5.83;;;3.30;;
74512;SDS011;62992;52.052;8.550;2023-04-24T06:04:04;4.93;;;3.20;;
74512;SDS011;62992;52.052;8.550;2023-04-24T06:06:49;5.93;;;3.85;;
74512;SDS011;62992;52.052;8.550;2023-04-24T06:09:34;4.85;;;3.30;;
74512;SDS011;62992;52.052;8.550;2023-04-24T06:12:18;6.07;;;3.15;;
74512;SDS011;62992;52.052;8.550;2023-04-24T06:15:03;5.25;;;3.63;;
74512;SDS011;62992;52.052;8.550;2023-04-24T06:17:47;5.60;;;3.53;;
74512;SDS011;62992;52.052;8.550;2023-04-24T06:20:31;6.63;;;2.70;;
74512;SDS011;62992;52.052;8.550;2023-04-24T06:23:16;6.28;;;3.42;;
74512;SDS011;62992;52.052;8.550;2023-04-24T06:26:00;6.63;;;3.20;;
74512;SDS011;62992;52.052;8.550;2023-04-24T06:28:44;5.60;;;3.42;;
74512;SDS011;62992;52.052;8.550;2023-04-24T06:31:29;6.78;;;3.42;;
74512;SDS011;62992;52.052;8.550;2023-04-24T06:34:13;7.18;;;3.83;;
74512;SDS011;62992;52.052;8.550;2023-04-24T06:36:57;5.95;;;3.67;;
74512;SDS011;62992;52.052;8.550;2023-04-24T06:39:42;6.72;;;4.03;;
74512;SDS011;62992;52.052;8.550;2023-04-24T06:42:26;7.25;;;3.90;;
74512;SDS011;62992;52.052;8.550;2023-04-24T06:45:09;6.70;;;4.00;;
74512;SDS011;62992;52.052;8.550;2023-04-24T06:47:54;5.97;;;3.90;;
74512;SDS011;62992;52.052;8.550;2023-04-24T06:50:38;5.00;;;3.65;;
74512;SDS011;62992;52.052;8.550;2023-04-24T06:53:22;8.45;;;4.07;;
74512;SDS011;62992;52.052;8.550;2023-04-24T06:56:06;4.53;;;3.20;;
74512;SDS011;62992;52.052;8.550;2023-04-24T06:58:51;5.47;;;3.40;;
74512;SDS011;62992;52.052;8.550;2023-04-24T07:01:37;5.70;;;3.70;;
74512;SDS011;62992;52.052;8.550;2023-04-24T07:04:21;8.63;;;3.72;;
74512;SDS011;62992;52.052;8.550;2023-04-24T07:07:05;8.43;;;3.80;;
74512;SDS011;62992;52.052;8.550;2023-04-24T07:09:50;5.00;;;3.30;;
74512;SDS011;62992;52.052;8.550;2023-04-24T07:12:34;7.18;;;4.10;;
74512;SDS011;62992;52.052;8.550;2023-04-24T07:15:19;6.50;;;4.17;;
74512;SDS011;62992;52.052;8.550;2023-04-24T07:18:03;6.50;;;3.92;;
74512;SDS011;62992;52.052;8.550;2023-04-24T07:20:47;8.05;;;4.20;;
74512;SDS011;62992;52.052;8.550;2023-04-24T07:26:18;4.95;;;3.58;;
74512;SDS011;62992;52.052;8.550;2023-04-24T07:31:48;7.15;;;2.58;;
74512;SDS011;62992;52.052;8.550;2023-04-24T07:34:32;7.30;;;3.58;;
74512;SDS011;62992;52.052;8.550;2023-04-24T07:37:17;4.28;;;2.90;;
74512;SDS011;62992;52.052;8.550;2023-04-24T07:40:01;3.92;;;2.70;;
74512;SDS011;62992;52.052;8.550;2023-04-24T07:42:45;6.97;;;3.40;;
74512;SDS011;62992;52.052;8.550;2023-04-24T07:45:31;3.67;;;2.60;;
74512;SDS011;62992;52.052;8.550;2023-04-24T07:48:19;4.65;;;3.08;;
74512;SDS011;62992;52.052;8.550;2023-04-24T07:51:05;3.60;;;2.97;;
74512;SDS011;62992;52.052;8.550;2023-04-24T07:53:49;3.72;;;2.80;;
74512;SDS011;62992;52.052;8.550;2023-04-24T07:56:33;2.55;;;2.35;;
74512;SDS011;62992;52.052;8.550;2023-04-24T07:59:19;2.70;;;1.90;;
74512;SDS011;62992;52.052;8.550;2023-04-24T08:02:03;3.08;;;2.17;;
74512;SDS011;62992;52.052;8.550;2023-04-24T08:04:47;2.85;;;2.08;;
74512;SDS011;62992;52.052;8.550;2023-04-24T08:07:31;3.13;;;2.08;;
74512;SDS011;62992;52.052;8.550;2023-04-24T08:10:15;3.05;;;2.08;;
74512;SDS011;62992;52.052;8.550;2023-04-24T08:12:59;2.83;;;2.17;;
74512;SDS011;62992;52.052;8.550;2023-04-24T08:15:43;7.40;;;2.25;;
74512;SDS011;62992;52.052;8.550;2023-04-24T08:18:27;2.80;;;2.42;;
74512;SDS011;62992;52.052;8.550;2023-04-24T08:21:11;2.10;;;1.42;;
74512;SDS011;62992;52.052;8.550;2023-04-24T08:24:00;2.67;;;1.77;;
74512;SDS011;62992;52.052;8.550;2023-04-24T08:26:48;2.05;;;1.77;;
74512;SDS011;62992;52.052;8.550;2023-04-24T08:29:37;2.25;;;1.90;;
74512;SDS011;62992;52.052;8.550;2023-04-24T08:32:21;3.40;;;1.80;;
74512;SDS011;62992;52.052;8.550;2023-04-24T08:35:05;3.17;;;2.17;;
74512;SDS011;62992;52.052;8.550;2023-04-24T08:37:52;4.57;;;2.00;;
74512;SDS011;62992;52.052;8.550;2023-04-24T08:40:37;3.20;;;1.70;;
74512;SDS011;62992;52.052;8.550;2023-04-24T08:43:23;2.65;;;1.63;;
74512;SDS011;62992;52.052;8.550;2023-04-24T08:46:08;2.25;;;1.95;;
74512;SDS011;62992;52.052;8.550;2023-04-24T08:48:54;1.55;;;1.40;;
74512;SDS011;62992;52.052;8.550;2023-04-24T08:51:39;1.98;;;1.73;;
74512;SDS011;62992;52.052;8.550;2023-04-24T08:54:24;1.42;;;1.10;;
74512;SDS011;62992;52.052;8.550;2023-04-24T08:57:09;2.40;;;1.02;;
74512;SDS011;62992;52.052;8.550;2023-04-24T08:59:55;1.52;;;1.13;;
74512;SDS011;62992;52.052;8.550;2023-04-24T09:02:44;1.42;;;1.10;;
74512;SDS011;62992;52.052;8.550;2023-04-24T09:05:30;3.72;;;1.23;;
74512;SDS011;62992;52.052;8.550;2023-04-24T09:08:19;1.30;;;1.20;;
74512;SDS011;62992;52.052;8.550;2023-04-24T09:11:03;2.80;;;1.30;;
74512;SDS011;62992;52.052;8.550;2023-04-24T09:13:48;5.50;;;1.47;;
74512;SDS011;62992;52.052;8.550;2023-04-24T09:16:33;1.73;;;1.00;;
74512;SDS011;62992;52.052;8.550;2023-04-24T09:19:17;1.77;;;1.25;;
74512;SDS011;62992;52.052;8.550;2023-04-24T09:22:04;1.50;;;1.02;;
74512;SDS011;62992;52.052;8.550;2023-04-24T09:24:59;1.38;;;0.95;;
74512;SDS011;62992;52.052;8.550;2023-04-24T09:28:02;0.70;;;0.70;;
74512;SDS011;62992;52.052;8.550;2023-04-24T09:30:47;1.42;;;1.08;;
74512;SDS011;62992;52.052;8.550;2023-04-24T09:34:02;0.95;;;0.77;;
74512;SDS011;62992;52.052;8.550;2023-04-24T09:36:49;1.88;;;0.93;;
74512;SDS011;62992;52.052;8.550;2023-04-24T09:39:33;1.20;;;1.00;;
74512;SDS011;62992;52.052;8.550;2023-04-24T09:42:17;0.85;;;0.65;;
74512;SDS011;62992;52.052;8.550;2023-04-24T09:45:03;3.17;;;0.90;;
74512;SDS011;62992;52.052;8.550;2023-04-24T09:47:51;0.80;;;0.80;;
74512;SDS011;62992;52.052;8.550;2023-04-24T09:50:37;1.00;;;0.82;;
74512;SDS011;62992;52.052;8.550;2023-04-24T09:53:24;1.05;;;0.45;;
74512;SDS011;62992;52.052;8.550;2023-04-24T09:56:09;0.82;;;0.82;;
74512;SDS011;62992;52.052;8.550;2023-04-24T10:01:47;0.40;;;0.40;;
74512;SDS011;62992;52.052;8.550;2023-04-24T10:04:35;0.43;;;0.43;;
74512;SDS011;62992;52.052;8.550;2023-04-24T10:07:20;0.82;;;0.63;;
74512;SDS011;62992;52.052;8.550;2023-04-24T10:10:04;1.13;;;0.75;;
74512;SDS011;62992;52.052;8.550;2023-04-24T10:12:49;0.70;;;0.57;;
74512;SDS011;62992;52.052;8.550;2023-04-24T10:15:35;0.90;;;0.60;;
74512;SDS011;62992;52.052;8.550;2023-04-24T10:18:19;0.47;;;0.40;;
74512;SDS011;62992;52.052;8.550;2023-04-24T10:23:49;0.40;;;0.40;;
74512;SDS011;62992;52.052;8.550;2023-04-24T10:26:34;2.73;;;0.57;;
74512;SDS011;62992;52.052;8.550;2023-04-24T10:29:19;0.70;;;0.35;;
74512;SDS011;62992;52.052;8.550;2023-04-24T10:32:06;0.73;;;0.50;;
74512;SDS011;62992;52.052;8.550;2023-04-24T10:37:36;0.40;;;0.40;;
74512;SDS011;62992;52.052;8.550;2023-04-24T10:40:26;0.60;;;0.40;;
74512;SDS011;62992;52.052;8.550;2023-04-24T10:43:15;0.80;;;0.70;;
74512;SDS011;62992;52.052;8.550;2023-04-24T10:46:03;1.08;;;0.88;;
74512;SDS011;62992;52.052;8.550;2023-04-24T10:48:55;1.08;;;0.98;;
74512;SDS011;62992;52.052;8.550;2023-04-24T10:51:44;1.30;;;0.95;;
74512;SDS011;62992;52.052;8.550;2023-04-24T10:54:41;1.52;;;1.08;;
74512;SDS011;62992;52.052;8.550;2023-04-24T10:57:27;2.05;;;1.20;;
74512;SDS011;62992;52.052;8.550;2023-04-24T11:00:20;1.40;;;1.20;;
74512;SDS011;62992;52.052;8.550;2023-04-24T11:03:06;1.85;;;1.50;;
74512;SDS011;62992;52.052;8.550;2023-04-24T11:06:02;1.42;;;1.33;;
74512;SDS011;62992;52.052;8.550;2023-04-24T11:08:47;2.40;;;1.70;;
74512;SDS011;62992;52.052;8.550;2023-04-24T11:11:32;2.30;;;1.75;;
74512;SDS011;62992;52.052;8.550;2023-04-24T11:17:03;1.70;;;1.20;;
74512;SDS011;62992;52.052;8.550;2023-04-24T11:19:50;1.98;;;1.52;;
74512;SDS011;62992;52.052;8.550;2023-04-24T11:22:35;1.80;;;1.70;;
74512;SDS011;62992;52.052;8.550;2023-04-24T11:25:20;1.80;;;1.65;;
74512;SDS011;62992;52.052;8.550;2023-04-24T11:28:06;1.52;;;1.30;;
74512;SDS011;62992;52.052;8.550;2023-04-24T11:30:50;1.50;;;1.10;;
74512;SDS011;62992;52.052;8.550;2023-04-24T11:33:36;0.82;;;0.80;;
74512;SDS011;62992;52.052;8.550;2023-04-24T11:36:20;1.65;;;1.25;;
74512;SDS011;62992;52.052;8.550;2023-04-24T11:39:05;0.98;;;0.88;;
74512;SDS011;62992;52.052;8.550;2023-04-24T11:41:50;1.10;;;0.80;;
74512;SDS011;62992;52.052;8.550;2023-04-24T11:44:34;0.70;;;0.50;;
74512;SDS011;62992;52.052;8.550;2023-04-24T11:50:12;0.47;;;0.30;;
74512;SDS011;62992;52.052;8.550;2023-04-24T11:53:00;0.40;;;0.40;;
74512;SDS011;62992;52.052;8.550;2023-04-24T11:55:44;0.50;;;0.20;;
74512;SDS011;62992;52.052;8.550;2023-04-24T11:58:28;0.75;;;0.32;;
74512;SDS011;62992;52.052;8.550;2023-04-24T12:01:18;0.20;;;0.20;;
74512;SDS011;62992;52.052;8.550;2023-04-24T12:04:02;0.43;;;0.43;;
74512;SDS011;62992;52.052;8.550;2023-04-24T12:06:58;0.63;;;0.30;;
74512;SDS011;62992;52.052;8.550;2023-04-24T12:09:44;0.30;;;0.30;;
74512;SDS011;62992;52.052;8.550;2023-04-24T12:12:43;0.63;;;0.45;;
74512;SDS011;62992;52.052;8.550;2023-04-24T12:15:29;1.23;;;0.60;;
74512;SDS011;62992;52.052;8.550;2023-04-24T12:18:14;1.15;;;0.55;;
74512;SDS011;62992;52.052;8.550;2023-04-24T12:21:19;0.63;;;0.38;;
74512;SDS011;62992;52.052;8.550;2023-04-24T12:24:08;0.85;;;0.50;;
74512;SDS011;62992;52.052;8.550;2023-04-24T12:26:53;0.63;;;0.57;;
74512;SDS011;62992;52.052;8.550;2023-04-24T12:29:50;0.60;;;0.50;;
74512;SDS011;62992;52.052;8.550;2023-04-24T12:32:48;0.93;;;0.70;;
74512;SDS011;62992;52.052;8.550;2023-04-24T12:35:33;1.00;;;0.95;;
74512;SDS011;62992;52.052;8.550;2023-04-24T12:38:22;1.95;;;0.88;;
74512;SDS011;62992;52.052;8.550;2023-04-24T12:41:08;2.40;;;1.23;;
74512;SDS011;62992;52.052;8.550;2023-04-24T12:43:53;1.50;;;0.93;;
74512;SDS011;62992;52.052;8.550;2023-04-24T12:46:38;1.45;;;0.98;;
74512;SDS011;62992;52.052;8.550;2023-04-24T12:49:22;2.53;;;1.38;;
74512;SDS011;62992;52.052;8.550;2023-04-24T12:52:07;2.05;;;1.30;;
74512;SDS011;62992;52.052;8.550;2023-04-24T12:54:55;2.35;;;1.70;;
74512;SDS011;62992;52.052;8.550;2023-04-24T12:57:41;2.42;;;1.50;;
74512;SDS011;62992;52.052;8.550;2023-04-24T13:00:25;2.75;;;1.50;;
74512;SDS011;62992;52.052;8.550;2023-04-24T13:03:09;1.67;;;1.23;;
74512;SDS011;62992;52.052;8.550;2023-04-24T13:05:54;1.90;;;0.93;;
74512;SDS011;62992;52.052;8.550;2023-04-24T13:08:38;3.38;;;1.25;;
74512;SDS011;62992;52.052;8.550;2023-04-24T13:11:22;3.30;;;1.40;;
74512;SDS011;62992;52.052;8.550;2023-04-24T13:14:07;3.17;;;1.30;;
74512;SDS011;62992;52.052;8.550;2023-04-24T13:16:51;1.50;;;1.10;;
74512;SDS011;62992;52.052;8.550;2023-04-24T13:19:39;1.90;;;0.85;;
74512;SDS011;62992;52.052;8.550;2023-04-24T13:22:25;1.30;;;1.00;;
74512;SDS011;62992;52.052;8.550;2023-04-24T13:25:09;1.33;;;0.88;;
74512;SDS011;62992;52.052;8.550;2023-04-24T13:27:53;2.05;;;0.75;;
74512;SDS011;62992;52.052;8.550;2023-04-24T13:30:37;0.95;;;0.90;;
74512;SDS011;62992;52.052;8.550;2023-04-24T13:33:22;1.77;;;1.10;;
74512;SDS011;62992;52.052;8.550;2023-04-24T13:36:06;2.15;;;0.98;;
74512;SDS011;62992;52.052;8.550;2023-04-24T13:38:50;1.65;;;0.82;;
74512;SDS011;62992;52.052;8.550;2023-04-24T13:41:34;2.85;;;1.10;;
74512;SDS011;62992;52.052;8.550;2023-04-24T13:44:20;2.83;;;0.98;;
74512;SDS011;62992;52.052;8.550;2023-04-24T13:47:05;2.10;;;0.90;;
74512;SDS011;62992;52.052;8.550;2023-04-24T13:49:48;1.55;;;1.45;;
74512;SDS011;62992;52.052;8.550;2023-04-24T13:52:33;1.70;;;1.10;;
74512;SDS011;62992;52.052;8.550;2023-04-24T13:55:18;2.50;;;1.60;;
74512;SDS011;62992;52.052;8.550;2023-04-24T13:58:02;3.50;;;1.60;;
74512;SDS011;62992;52.052;8.550;2023-04-24T14:00:46;2.42;;;1.40;;
74512;SDS011;62992;52.052;8.550;2023-04-24T14:03:30;2.78;;;1.80;;
74512;SDS011;62992;52.052;8.550;2023-04-24T14:06:15;3.15;;;1.77;;
74512;SDS011;62992;52.052;8.550;2023-04-24T14:08:58;6.18;;;2.03;;
74512;SDS011;62992;52.052;8.550;2023-04-24T14:11:42;4.95;;;2.17;;
74512;SDS011;62992;52.052;8.550;2023-04-24T14:14:27;4.10;;;1.98;;
74512;SDS011;62992;52.052;8.550;2023-04-24T14:19:57;2.67;;;1.50;;
74512;SDS011;62992;52.052;8.550;2023-04-24T14:22:44;3.75;;;1.98;;
74512;SDS011;62992;52.052;8.550;2023-04-24T14:25:28;4.53;;;1.80;;
74512;SDS011;62992;52.052;8.550;2023-04-24T14:28:13;2.80;;;1.77;;
74512;SDS011;62992;52.052;8.550;2023-04-24T14:30:58;5.05;;;1.40;;
74512;SDS011;62992;52.052;8.550;2023-04-24T14:33:42;2.08;;;1.35;;
74512;SDS011;62992;52.052;8.550;2023-04-24T14:36:26;1.88;;;1.40;;
74512;SDS011;62992;52.052;8.550;2023-04-24T14:39:10;3.35;;;1.50;;
74512;SDS011;62992;52.052;8.550;2023-04-24T14:41:55;6.13;;;2.03;;
74512;SDS011;62992;52.052;8.550;2023-04-24T14:44:39;2.45;;;1.55;;
74512;SDS011;62992;52.052;8.550;2023-04-24T14:47:23;3.20;;;1.73;;
74512;SDS011;62992;52.052;8.550;2023-04-24T14:50:08;2.55;;;1.70;;
74512;SDS011;62992;52.052;8.550;2023-04-24T14:52:53;3.03;;;2.10;;
74512;SDS011;62992;52.052;8.550;2023-04-24T14:55:40;3.13;;;1.70;;
74512;SDS011;62992;52.052;8.550;2023-04-24T14:58:24;3.22;;;1.77;;
74512;SDS011;62992;52.052;8.550;2023-04-24T15:01:08;2.78;;;1.58;;
74512;SDS011;62992;52.052;8.550;2023-04-24T15:03:53;5.00;;;1.30;;
74512;SDS011;62992;52.052;8.550;2023-04-24T15:06:38;2.97;;;1.65;;
74512;SDS011;62992;52.052;8.550;2023-04-24T15:09:22;3.47;;;1.58;;
74512;SDS011;62992;52.052;8.550;2023-04-24T15:12:08;4.50;;;2.10;;
74512;SDS011;62992;52.052;8.550;2023-04-24T15:14:54;2.35;;;1.75;;
74512;SDS011;62992;52.052;8.550;2023-04-24T15:17:39;2.80;;;1.40;;
74512;SDS011;62992;52.052;8.550;2023-04-24T15:20:23;2.17;;;1.60;;
74512;SDS011;62992;52.052;8.550;2023-04-24T15:23:08;3.10;;;1.10;;
74512;SDS011;62992;52.052;8.550;2023-04-24T15:25:52;1.80;;;0.98;;
74512;SDS011;62992;52.052;8.550;2023-04-24T15:28:37;2.38;;;1.20;;
74512;SDS011;62992;52.052;8.550;2023-04-24T15:31:21;1.92;;;0.93;;
74512;SDS011;62992;52.052;8.550;2023-04-24T15:34:06;1.05;;;0.88;;
74512;SDS011;62992;52.052;8.550;2023-04-24T15:36:50;0.95;;;0.63;;
74512;SDS011;62992;52.052;8.550;2023-04-24T15:39:34;1.23;;;0.93;;
74512;SDS011;62992;52.052;8.550;2023-04-24T15:42:18;1.42;;;1.08;;
74512;SDS011;62992;52.052;8.550;2023-04-24T15:45:02;1.70;;;1.20;;
74512;SDS011;62992;52.052;8.550;2023-04-24T15:47:47;1.10;;;1.00;;
74512;SDS011;62992;52.052;8.550;2023-04-24T15:50:31;3.58;;;1.20;;
74512;SDS011;62992;52.052;8.550;2023-04-24T15:53:15;1.00;;;0.50;;
74512;SDS011;62992;52.052;8.550;2023-04-24T15:56:04;2.38;;;1.10;;
74512;SDS011;62992;52.052;8.550;2023-04-24T15:58:48;1.92;;;0.98;;
74512;SDS011;62992;52.052;8.550;2023-04-24T16:01:32;2.00;;;1.17;;
74512;SDS011;62992;52.052;8.550;2023-04-24T16:04:17;1.95;;;0.90;;
74512;SDS011;62992;52.052;8.550;2023-04-24T16:07:01;1.52;;;1.00;;
74512;SDS011;62992;52.052;8.550;2023-04-24T16:09:46;2.55;;;1.23;;
74512;SDS011;62992;52.052;8.550;2023-04-24T16:12:30;1.30;;;0.75;;
74512;SDS011;62992;52.052;8.550;2023-04-24T16:15:14;1.45;;;1.10;;
74512;SDS011;62992;52.052;8.550;2023-04-24T16:17:58;1.30;;;0.82;;
74512;SDS011;62992;52.052;8.550;2023-04-24T16:20:43;1.75;;;0.90;;
74512;SDS011;62992;52.052;8.550;2023-04-24T16:23:27;1.48;;;0.77;;
74512;SDS011;62992;52.052;8.550;2023-04-24T16:26:11;2.28;;;0.70;;
74512;SDS011;62992;52.052;8.550;2023-04-24T16:28:56;1.15;;;0.82;;
74512;SDS011;62992;52.052;8.550;2023-04-24T16:31:40;1.75;;;1.10;;
74512;SDS011;62992;52.052;8.550;2023-04-24T16:34:24;0.80;;;0.70;;
74512;SDS011;62992;52.052;8.550;2023-04-24T16:37:09;2.55;;;0.57;;
74512;SDS011;62992;52.052;8.550;2023-04-24T16:39:55;0.90;;;0.77;;
74512;SDS011;62992;52.052;8.550;2023-04-24T16:42:39;2.08;;;0.90;;
74512;SDS011;62992;52.052;8.550;2023-04-24T16:45:23;1.00;;;0.82;;
74512;SDS011;62992;52.052;8.550;2023-04-24T16:48:07;2.88;;;1.20;;
74512;SDS011;62992;52.052;8.550;2023-04-24T16:50:53;1.83;;;1.30;;
74512;SDS011;62992;52.052;8.550;2023-04-24T16:53:37;3.17;;;0.90;;
74512;SDS011;62992;52.052;8.550;2023-04-24T16:56:21;2.13;;;1.02;;
74512;SDS011;62992;52.052;8.550;2023-04-24T16:59:07;2.97;;;0.95;;
74512;SDS011;62992;52.052;8.550;2023-04-24T17:01:51;1.55;;;1.20;;